Rapids City, Illinois
Current Conditions -  °F | °C
As of 12:52 PM on Tuesday 21 Oct 2014 (Local Time) from KDVN Reporting Station
Clear Clear  
Wind Chill: 57°   Ceiling: Unl
Heat Index: 57°   Visibility: 10mi
Dew Point: 38°   Wind: 12mph
Humidity: 49%   Direction: 30°NNE
Pressure: 30.2"   Gusts: NA
Location:  41.58°N, 90.34°W
Report Text: KDVN 211752Z AUTO 03010KT 10SM CLR 14/03 A3020 RMK AO2 SLP227 T01390033 10139 20028 58001 TSNO
Loading
Personal Weather Stations






























Interactive Weather Map
Tropical Storm Tracking
New forecast layout! Learn more

10-Day Weather Forecast

Advertisements
Track Severe Weather on mobile